Time;durP1;ratioP1;P1;durP2;ratioP2;P2;SDS_P1;SDS_P2;PMS_P1;PMS_P2;Temp;Humidity;BMP_temperature;BMP_pressure;BME280_temperature;BME280_humidity;BME280_pressure;Samples;Min_cycle;Max_cycle;Signal;HPM_P1;HPM_P2
2021/01/09 00:01:41;;;;;;;0.20;0.20;;;15.10;68.50;;;;;;4213267;28;20052;-39
2021/01/09 00:04:04;;;;;;;0.10;0.10;;;15.10;68.70;;;;;;4213678;28;20593;-39
2021/01/09 00:06:35;;;;;;;0.00;0.00;;;15.10;68.50;;;;;;4214346;28;20117;-39
2021/01/09 00:08:56;;;;;;;0.00;0.00;;;15.30;67.90;;;;;;4214821;28;20048;-39
2021/01/09 00:11:17;;;;;;;0.00;0.00;;;15.40;67.40;;;;;;4214646;28;20452;-39
2021/01/09 00:13:38;;;;;;;0.10;0.10;;;15.40;67.10;;;;;;4214338;28;20087;-39
2021/01/09 00:15:59;;;;;;;0.00;0.00;;;15.40;67.10;;;;;;4214406;28;20502;-39
2021/01/09 00:18:21;;;;;;;0.00;0.00;;;15.40;67.10;;;;;;4214731;28;20135;-39
2021/01/09 00:20:43;;;;;;;0.00;0.00;;;15.30;67.20;;;;;;4214011;28;20055;-39
2021/01/09 00:23:04;;;;;;;0.30;0.30;;;15.30;67.50;;;;;;4214379;28;20492;-39
2021/01/09 00:25:25;;;;;;;0.00;0.00;;;15.30;67.50;;;;;;4214561;28;20048;-39
2021/01/09 00:27:46;;;;;;;0.00;0.00;;;15.20;67.50;;;;;;4214542;28;20052;-39
2021/01/09 00:30:08;;;;;;;0.00;0.00;;;15.20;67.60;;;;;;4214043;28;20498;-39
2021/01/09 00:32:29;;;;;;;0.00;0.00;;;15.10;67.80;;;;;;4214679;28;20055;-38
2021/01/09 00:34:50;;;;;;;0.00;0.00;;;15.10;68.00;;;;;;4214235;28;20062;-39
2021/01/09 00:37:11;;;;;;;;;;;15.20;67.70;;;;;;4214372;28;20048;-39
2021/01/09 00:39:32;;;;;;;0.00;0.00;;;15.40;66.90;;;;;;4213880;28;20394;-39
2021/01/09 00:41:53;;;;;;;0.00;0.00;;;15.50;66.20;;;;;;4214229;28;20056;-39
2021/01/09 00:44:13;;;;;;;0.00;0.00;;;15.60;66.00;;;;;;4213736;28;20114;-39
2021/01/09 00:46:34;;;;;;;0.00;0.00;;;15.60;65.70;;;;;;4214027;28;20056;-39
2021/01/09 00:48:56;;;;;;;0.00;0.00;;;15.60;65.70;;;;;;4214210;28;20051;-39
2021/01/09 00:51:17;;;;;;;0.00;0.00;;;15.60;65.70;;;;;;4214178;28;20063;-39
2021/01/09 00:53:39;;;;;;;0.00;0.00;;;15.50;65.80;;;;;;4213598;28;20048;-39
2021/01/09 00:55:59;;;;;;;0.00;0.00;;;15.60;66.00;;;;;;4213850;28;20048;-39
2021/01/09 00:58:21;;;;;;;0.00;0.00;;;15.60;65.70;;;;;;4213806;28;20498;-39
2021/01/09 01:00:42;;;;;;;0.00;0.00;;;15.70;65.30;;;;;;4214208;28;20469;-39
2021/01/09 01:03:03;;;;;;;0.00;0.00;;;15.70;65.20;;;;;;4213765;28;20586;-39
2021/01/09 01:05:24;;;;;;;0.00;0.00;;;15.70;65.30;;;;;;4213053;28;20101;-39
2021/01/09 01:07:46;;;;;;;0.10;0.10;;;15.70;65.20;;;;;;4213878;28;20054;-39
2021/01/09 01:10:08;;;;;;;0.00;0.00;;;15.70;64.90;;;;;;4213627;28;20142;-39
2021/01/09 01:12:29;;;;;;;0.00;0.00;;;15.80;65.00;;;;;;4212869;28;20055;-39
2021/01/09 01:14:50;;;;;;;0.00;0.00;;;15.80;65.00;;;;;;4213764;28;20048;-39
2021/01/09 01:17:11;;;;;;;0.10;0.10;;;15.70;64.90;;;;;;4213447;28;20551;-38
2021/01/09 01:19:32;;;;;;;0.10;0.10;;;15.60;65.10;;;;;;4213403;28;20055;-39
2021/01/09 01:21:53;;;;;;;0.00;0.00;;;15.50;65.40;;;;;;4213105;28;20056;-39
2021/01/09 01:24:15;;;;;;;0.00;0.00;;;15.50;65.70;;;;;;4213676;28;20127;-39
2021/01/09 01:26:36;;;;;;;0.10;0.10;;;15.40;66.10;;;;;;4213547;28;20516;-39
2021/01/09 01:28:57;;;;;;;0.00;0.00;;;15.40;66.20;;;;;;4213239;28;20048;-39
2021/01/09 01:31:17;;;;;;;0.00;0.00;;;15.50;65.80;;;;;;4213428;28;20056;-39
2021/01/09 01:33:39;;;;;;;0.00;0.00;;;15.60;65.50;;;;;;4213718;28;20059;-39
2021/01/09 01:36:01;;;;;;;0.00;0.00;;;15.70;65.00;;;;;;4213004;28;20048;-38
2021/01/09 01:38:21;;;;;;;;;;;15.70;64.70;;;;;;4213705;28;20054;-39
2021/01/09 01:40:43;;;;;;;0.00;0.00;;;15.70;64.60;;;;;;4212521;28;20018;-39
2021/01/09 01:43:09;;;;;;;0.00;0.00;;;15.70;64.70;;;;;;4212991;28;20444;-39
2021/01/09 01:45:30;;;;;;;0.00;0.00;;;15.70;64.90;;;;;;4213486;28;20402;-39
2021/01/09 01:47:51;;;;;;;1.30;1.20;;;15.60;65.00;;;;;;4212982;28;20056;-39
2021/01/09 01:50:12;;;;;;;0.00;0.00;;;15.50;65.30;;;;;;4212662;28;20426;-39
2021/01/09 01:52:33;;;;;;;0.10;0.10;;;15.40;66.50;;;;;;4213386;28;20057;-39
2021/01/09 01:54:54;;;;;;;0.00;0.00;;;15.40;65.90;;;;;;4212872;28;20127;-40
2021/01/09 01:57:15;;;;;;;0.00;0.00;;;15.30;66.30;;;;;;4212899;28;20569;-39
2021/01/09 01:59:36;;;;;;;0.00;0.00;;;15.10;66.60;;;;;;4213010;28;20051;-39
2021/01/09 02:02:02;;;;;;;0.00;0.00;;;15.10;66.90;;;;;;4212778;28;20056;-39
2021/01/09 02:04:23;;;;;;;0.03;0.03;;;15.00;67.10;;;;;;4213218;28;20086;-39
2021/01/09 02:06:46;;;;;;;0.00;0.00;;;15.20;66.70;;;;;;4212956;28;20062;-39
2021/01/09 02:09:11;;;;;;;0.00;0.00;;;15.40;65.90;;;;;;4212623;28;20105;-40
2021/01/09 02:11:37;;;;;;;0.00;0.00;;;15.60;65.20;;;;;;4212985;28;20052;-39
2021/01/09 02:14:02;;;;;;;0.00;0.00;;;15.80;64.40;;;;;;4212447;28;20048;-39
2021/01/09 02:16:25;;;;;;;0.00;0.00;;;16.00;63.50;;;;;;4212568;28;20125;-38
2021/01/09 02:18:48;;;;;;;0.00;0.00;;;16.20;62.80;;;;;;4212516;28;20052;-39
2021/01/09 02:21:19;;;;;;;0.00;0.00;;;16.30;62.10;;;;;;4212219;28;20060;-39
2021/01/09 02:23:41;;;;;;;0.00;0.00;;;16.40;61.60;;;;;;4212197;28;20052;-39
2021/01/09 02:26:01;;;;;;;;;;;16.50;61.40;;;;;;4212957;28;20051;-39
2021/01/09 02:28:22;;;;;;;0.00;0.00;;;16.50;61.20;;;;;;4213049;28;19923;-39
2021/01/09 02:30:47;;;;;;;0.00;0.00;;;16.60;61.10;;;;;;4212227;28;20051;-39
2021/01/09 02:33:10;;;;;;;0.00;0.00;;;16.50;61.10;;;;;;4196215;28;20052;-39
2021/01/09 02:35:34;;;;;;;0.00;0.00;;;16.60;61.20;;;;;;4206568;28;20048;-39
2021/01/09 02:37:55;;;;;;;0.00;0.00;;;16.70;60.60;;;;;;4212639;28;20563;-39
2021/01/09 02:40:18;;;;;;;0.47;0.47;;;16.80;60.20;;;;;;4211667;28;20047;-39
2021/01/09 02:42:39;;;;;;;0.00;0.00;;;16.80;59.90;;;;;;4212232;28;20051;-39
2021/01/09 02:45:02;;;;;;;0.00;0.00;;;16.80;59.90;;;;;;4212312;28;20101;-39
2021/01/09 02:47:23;;;;;;;0.00;0.00;;;16.70;60.10;;;;;;4212413;28;20062;-39
2021/01/09 02:49:44;;;;;;;0.00;0.00;;;16.60;60.60;;;;;;4211972;28;20051;-39
2021/01/09 02:52:05;;;;;;;1.27;1.17;;;16.50;61.20;;;;;;4212337;28;20139;-39
2021/01/09 02:54:26;;;;;;;0.25;0.25;;;16.30;61.60;;;;;;4212209;28;20156;-39
2021/01/09 02:56:47;;;;;;;0.00;0.00;;;16.30;61.80;;;;;;4212346;28;20083;-39
2021/01/09 02:59:08;;;;;;;0.00;0.00;;;16.40;61.60;;;;;;4212483;28;20055;-39
2021/01/09 03:01:30;;;;;;;0.00;0.00;;;16.40;61.70;;;;;;4211959;28;20063;-40
2021/01/09 03:03:51;;;;;;;0.00;0.00;;;16.40;61.60;;;;;;4212431;28;20059;-40
2021/01/09 03:06:12;;;;;;;0.00;0.00;;;16.40;61.40;;;;;;4211994;28;20056;-40
2021/01/09 03:08:33;;;;;;;0.00;0.00;;;16.50;61.20;;;;;;4212205;28;20494;-39
2021/01/09 03:10:54;;;;;;;0.00;0.00;;;16.50;61.20;;;;;;4212260;28;20063;-39
2021/01/09 03:13:16;;;;;;;0.00;0.00;;;16.50;61.20;;;;;;4212102;28;20130;-39
2021/01/09 03:15:37;;;;;;;0.00;0.00;;;16.50;61.80;;;;;;4212572;28;20059;-40
2021/01/09 03:17:58;;;;;;;0.00;0.00;;;16.60;60.40;;;;;;4212016;28;20059;-39
2021/01/09 03:20:19;;;;;;;0.00;0.00;;;16.70;60.10;;;;;;4211397;28;20058;-39
2021/01/09 03:22:40;;;;;;;0.00;0.00;;;16.70;60.00;;;;;;4212523;28;20048;-39
2021/01/09 03:25:01;;;;;;;0.00;0.00;;;16.70;60.10;;;;;;4211894;28;20052;-39
2021/01/09 03:27:22;;;;;;;0.20;0.20;;;16.60;60.30;;;;;;4211925;28;20044;-39
2021/01/09 03:29:43;;;;;;;0.00;0.00;;;16.60;60.60;;;;;;4211880;28;20063;-39
2021/01/09 03:32:04;;;;;;;0.00;0.00;;;16.60;60.70;;;;;;4212234;28;20052;-39
2021/01/09 03:34:25;;;;;;;;;;;16.60;60.70;;;;;;4212681;28;20048;-39
2021/01/09 03:36:46;;;;;;;0.00;0.00;;;16.50;60.80;;;;;;4215709;28;19924;-39
2021/01/09 03:39:07;;;;;;;0.00;0.00;;;16.50;61.00;;;;;;4215257;28;20490;-39
2021/01/09 03:41:28;;;;;;;0.10;0.10;;;16.40;61.30;;;;;;4214789;28;20597;-39
2021/01/09 03:43:49;;;;;;;0.00;0.00;;;16.20;61.50;;;;;;4215002;28;20488;-39
2021/01/09 03:46:11;;;;;;;0.00;0.00;;;16.10;61.90;;;;;;4215246;28;20052;-39
2021/01/09 03:48:32;;;;;;;0.00;0.00;;;16.00;62.50;;;;;;4214628;28;20456;-39
2021/01/09 03:50:53;;;;;;;0.00;0.00;;;15.90;62.90;;;;;;4214720;28;20414;-39
2021/01/09 03:53:15;;;;;;;0.08;0.08;;;15.80;63.20;;;;;;4214592;28;20481;-40
2021/01/09 03:55:36;;;;;;;0.00;0.00;;;15.70;63.50;;;;;;4215372;28;20399;-40
2021/01/09 03:57:57;;;;;;;0.00;0.00;;;15.60;63.90;;;;;;4215016;28;20056;-41
2021/01/09 04:00:19;;;;;;;0.00;0.00;;;15.60;64.30;;;;;;4214856;28;20152;-41
2021/01/09 04:02:40;;;;;;;;;;;15.40;64.60;;;;;;4214155;28;20533;-39
2021/01/09 04:05:01;;;;;;;0.00;0.00;;;15.50;64.50;;;;;;4198420;28;19983;-40
2021/01/09 04:07:22;;;;;;;0.00;0.00;;;15.70;63.90;;;;;;4198084;28;20052;-39
2021/01/09 04:09:44;;;;;;;0.00;0.00;;;15.90;63.10;;;;;;4198056;28;20056;-39
2021/01/09 04:12:05;;;;;;;0.00;0.00;;;16.20;62.20;;;;;;4198126;28;20120;-39
2021/01/09 04:14:26;;;;;;;0.00;0.00;;;16.30;61.50;;;;;;4197855;28;20076;-40
2021/01/09 04:16:47;;;;;;;0.00;0.00;;;16.50;60.90;;;;;;4198235;28;20052;-39
2021/01/09 04:19:09;;;;;;;0.08;0.08;;;16.70;60.30;;;;;;4209594;28;20055;-39
2021/01/09 04:21:30;;;;;;;0.00;0.00;;;16.80;59.90;;;;;;4214497;28;20521;-39
2021/01/09 04:23:51;;;;;;;0.00;0.00;;;16.90;59.30;;;;;;4214511;28;20529;-39
2021/01/09 04:26:13;;;;;;;0.00;0.00;;;17.00;59.00;;;;;;4214359;28;20054;-39
2021/01/09 04:28:34;;;;;;;0.00;0.00;;;17.00;58.90;;;;;;4214608;28;20052;-39
2021/01/09 04:30:55;;;;;;;0.00;0.00;;;16.90;59.00;;;;;;4214309;28;20105;-39
2021/01/09 04:33:16;;;;;;;0.00;0.00;;;16.80;59.40;;;;;;4214459;28;20073;-39
2021/01/09 04:35:38;;;;;;;0.00;0.00;;;16.80;59.70;;;;;;4214250;28;20063;-39
2021/01/09 04:37:59;;;;;;;0.00;0.00;;;16.70;59.70;;;;;;4214679;28;20064;-39
2021/01/09 04:40:21;;;;;;;0.00;0.00;;;16.70;60.50;;;;;;4213765;28;20417;-39
2021/01/09 04:42:41;;;;;;;0.00;0.00;;;16.80;59.50;;;;;;4214096;28;20060;-38
2021/01/09 04:45:03;;;;;;;0.00;0.00;;;16.90;59.30;;;;;;4214457;28;20063;-39
2021/01/09 04:47:26;;;;;;;0.00;0.00;;;16.90;59.30;;;;;;4213085;28;20056;-39
2021/01/09 04:49:46;;;;;;;0.00;0.00;;;16.70;59.50;;;;;;4213881;28;20059;-39
2021/01/09 04:52:10;;;;;;;0.00;0.00;;;16.60;59.90;;;;;;4214039;28;20048;-39
2021/01/09 04:54:33;;;;;;;0.00;0.00;;;16.50;60.40;;;;;;4214226;28;20055;-39
2021/01/09 04:56:55;;;;;;;0.10;0.10;;;16.60;60.40;;;;;;4213648;28;20109;-39
2021/01/09 04:59:19;;;;;;;0.00;0.00;;;16.60;59.90;;;;;;4214272;28;20055;-39
2021/01/09 05:01:41;;;;;;;0.00;0.00;;;16.80;59.50;;;;;;4206688;28;20059;-39
2021/01/09 05:04:03;;;;;;;0.00;0.00;;;16.80;59.50;;;;;;4213853;28;20131;-39
2021/01/09 05:06:23;;;;;;;0.00;0.00;;;16.70;59.50;;;;;;4213737;28;20059;-39
2021/01/09 05:08:45;;;;;;;0.00;0.00;;;16.70;59.60;;;;;;4214073;28;20135;-39
2021/01/09 05:11:06;;;;;;;0.00;0.00;;;16.60;59.80;;;;;;4213595;28;20056;-39
2021/01/09 05:13:27;;;;;;;0.00;0.00;;;16.70;59.80;;;;;;4214070;28;20422;-38
2021/01/09 05:15:48;;;;;;;0.00;0.00;;;16.60;59.70;;;;;;4213330;28;20504;-38
2021/01/09 05:18:09;;;;;;;0.00;0.00;;;16.70;59.70;;;;;;4213886;28;20589;-39
2021/01/09 05:20:31;;;;;;;0.00;0.00;;;16.60;59.80;;;;;;4213178;28;20044;-39
2021/01/09 05:22:52;;;;;;;0.00;0.00;;;16.50;60.00;;;;;;4213837;28;20639;-39
2021/01/09 05:25:14;;;;;;;0.00;0.00;;;16.40;60.40;;;;;;4212396;28;20078;-39
2021/01/09 05:27:37;;;;;;;0.22;0.22;;;16.30;60.80;;;;;;4213638;28;20518;-39
2021/01/09 05:29:58;;;;;;;0.30;0.30;;;16.30;61.20;;;;;;4213202;28;20060;-39
2021/01/09 05:32:22;;;;;;;0.00;0.00;;;16.40;60.70;;;;;;4199442;28;20137;-39
2021/01/09 05:34:46;;;;;;;0.00;0.00;;;16.40;60.50;;;;;;4213524;28;20048;-39
2021/01/09 05:37:15;;;;;;;0.00;0.00;;;16.40;60.40;;;;;;4213193;28;20117;-39
2021/01/09 05:39:51;;;;;;;0.00;0.00;;;16.40;60.60;;;;;;4211524;28;20044;-40
2021/01/09 05:42:15;;;;;;;0.00;0.00;;;16.50;60.50;;;;;;4213249;28;20083;-39
2021/01/09 05:44:36;;;;;;;0.00;0.00;;;16.60;59.80;;;;;;4213114;28;20052;-39
2021/01/09 05:47:06;;;;;;;0.00;0.00;;;16.70;59.40;;;;;;4212602;28;20528;-39
2021/01/09 05:49:28;;;;;;;0.00;0.00;;;16.70;59.40;;;;;;4196630;28;20056;-39
2021/01/09 05:51:57;;;;;;;0.00;0.00;;;16.70;59.40;;;;;;4196285;28;20081;-39
2021/01/09 05:54:18;;;;;;;0.00;0.00;;;16.60;59.60;;;;;;4196263;28;20049;-39
2021/01/09 05:56:39;;;;;;;0.00;0.00;;;16.50;59.90;;;;;;4196255;28;20052;-39
2021/01/09 05:59:01;;;;;;;0.00;0.00;;;16.40;60.10;;;;;;4199032;28;20109;-39
2021/01/09 06:01:26;;;;;;;0.30;0.30;;;16.40;60.30;;;;;;4212463;28;20055;-39
2021/01/09 06:03:52;;;;;;;0.00;0.00;;;16.30;60.50;;;;;;4212964;28;20417;-39
2021/01/09 06:06:35;;;;;;;0.00;0.00;;;16.20;60.80;;;;;;4212694;28;20066;-39
2021/01/09 06:08:59;;;;;;;0.00;0.00;;;16.20;61.10;;;;;;4212969;28;20060;-39
2021/01/09 06:11:28;;;;;;;0.00;0.00;;;16.20;61.20;;;;;;4212157;28;20051;-39
2021/01/09 06:13:52;;;;;;;0.00;0.00;;;16.10;61.20;;;;;;4212544;28;20044;-39
2021/01/09 06:16:15;;;;;;;0.00;0.00;;;16.10;61.20;;;;;;4212466;28;20498;-39
2021/01/09 06:18:37;;;;;;;0.00;0.00;;;16.00;61.50;;;;;;4212435;28;20473;-39
2021/01/09 06:20:58;;;;;;;;;;;16.10;61.50;;;;;;4213134;28;20048;-39
2021/01/09 06:23:20;;;;;;;1.63;0.47;;;16.10;61.20;;;;;;4212733;28;20302;-39
2021/01/09 06:25:41;;;;;;;0.00;0.00;;;16.30;60.50;;;;;;4212507;28;20106;-39
2021/01/09 06:28:05;;;;;;;0.00;0.00;;;16.50;60.00;;;;;;4212297;28;20109;-39
2021/01/09 06:30:26;;;;;;;0.00;0.00;;;16.70;59.50;;;;;;4212293;28;20052;-39
2021/01/09 06:32:55;;;;;;;0.00;0.00;;;16.80;59.30;;;;;;4212611;28;20563;-39
2021/01/09 06:35:16;;;;;;;0.40;0.35;;;16.90;59.10;;;;;;4212266;28;20048;-39
2021/01/09 06:37:40;;;;;;;0.00;0.00;;;17.00;59.00;;;;;;4212653;28;20498;-39
2021/01/09 06:40:02;;;;;;;0.05;0.05;;;17.10;58.70;;;;;;4212337;28;20076;-39
2021/01/09 06:42:24;;;;;;;0.00;0.00;;;17.10;58.50;;;;;;4212436;28;20095;-39
2021/01/09 06:44:50;;;;;;;0.10;0.10;;;17.20;58.50;;;;;;4195698;28;20094;-39
2021/01/09 06:47:24;;;;;;;0.00;0.00;;;17.10;58.70;;;;;;4199509;28;20044;-39
2021/01/09 06:49:46;;;;;;;0.00;0.00;;;16.90;59.00;;;;;;4212190;28;20080;-39
2021/01/09 06:52:07;;;;;;;0.00;0.00;;;16.80;59.50;;;;;;4212262;28;20127;-39
2021/01/09 06:54:45;;;;;;;0.00;0.00;;;16.70;59.90;;;;;;4212288;28;20075;-39
2021/01/09 06:57:17;;;;;;;0.00;0.00;;;16.50;60.50;;;;;;4212417;28;20406;-39
2021/01/09 06:59:39;;;;;;;0.00;0.00;;;16.40;61.00;;;;;;4211994;28;20048;-39
2021/01/09 07:02:29;;;;;;;0.00;0.00;;;16.30;61.30;;;;;;4199157;28;20056;-39
2021/01/09 07:05:02;;;;;;;0.00;0.00;;;16.50;62.00;;;;;;4212526;28;20055;-39
2021/01/09 07:07:30;;;;;;;0.00;0.00;;;16.70;60.60;;;;;;4212198;28;20047;-38
2021/01/09 07:09:51;;;;;;;0.00;0.00;;;16.80;60.40;;;;;;4212430;28;20055;-39
2021/01/09 07:12:15;;;;;;;0.00;0.00;;;16.90;60.10;;;;;;4215894;28;20148;-39
2021/01/09 07:14:37;;;;;;;0.00;0.00;;;17.00;60.20;;;;;;4215231;28;20101;-39
2021/01/09 07:16:58;;;;;;;0.00;0.00;;;17.00;59.90;;;;;;4214398;28;20044;-40
2021/01/09 07:19:25;;;;;;;0.00;0.00;;;16.90;60.40;;;;;;4214445;28;20695;-39
2021/01/09 07:21:47;;;;;;;0.50;0.50;;;16.90;60.90;;;;;;4205690;28;20048;-40
2021/01/09 07:24:12;;;;;;;0.00;0.00;;;16.80;61.10;;;;;;4215148;28;20098;-40
2021/01/09 07:26:36;;;;;;;0.00;0.00;;;16.80;60.80;;;;;;4215711;28;20052;-39
2021/01/09 07:29:02;;;;;;;0.00;0.00;;;16.90;60.30;;;;;;4215663;28;20048;-39
2021/01/09 07:31:24;;;;;;;0.00;0.00;;;16.90;60.20;;;;;;4215394;28;20044;-41
2021/01/09 07:33:46;;;;;;;0.00;0.00;;;16.90;60.10;;;;;;4214652;28;20052;-40
2021/01/09 07:36:08;;;;;;;2.30;1.45;;;16.80;60.30;;;;;;4213615;28;20055;-40
2021/01/09 07:38:30;;;;;;;0.10;0.10;;;16.70;60.50;;;;;;4215512;28;20788;-39
2021/01/09 07:40:56;;;;;;;0.00;0.00;;;16.80;60.30;;;;;;4215038;28;20044;-40
2021/01/09 07:43:36;;;;;;;0.43;0.43;;;16.90;59.90;;;;;;4215137;28;20383;-40
2021/01/09 07:45:59;;;;;;;0.10;0.10;;;17.00;59.70;;;;;;4215413;28;20075;-40
2021/01/09 07:48:20;;;;;;;1.08;1.08;;;16.90;59.60;;;;;;4214887;28;20547;-40
2021/01/09 07:50:44;;;;;;;0.00;0.00;;;16.90;59.80;;;;;;4214995;28;20067;-39
2021/01/09 07:53:06;;;;;;;0.00;0.00;;;16.90;59.80;;;;;;4215060;28;20514;-39
2021/01/09 07:55:43;;;;;;;0.10;0.10;;;16.90;59.80;;;;;;4215180;28;20490;-39
2021/01/09 07:58:05;;;;;;;0.00;0.00;;;16.80;60.10;;;;;;4214720;28;20075;-40
2021/01/09 08:00:25;;;;;;;0.00;0.00;;;16.60;60.50;;;;;;4215012;28;20048;-39
2021/01/09 08:02:47;;;;;;;0.00;0.00;;;16.50;60.80;;;;;;4214341;28;20056;-39
2021/01/09 08:05:09;;;;;;;0.00;0.00;;;16.40;61.30;;;;;;4200483;28;20110;-39
2021/01/09 08:07:31;;;;;;;0.00;0.00;;;16.30;61.70;;;;;;4215153;28;20158;-40
2021/01/09 08:09:53;;;;;;;0.00;0.00;;;16.20;62.10;;;;;;4197937;28;20060;-40
2021/01/09 08:12:25;;;;;;;0.00;0.00;;;16.20;62.40;;;;;;4198392;28;20057;-40
2021/01/09 08:14:46;;;;;;;0.15;0.15;;;16.20;62.30;;;;;;4212234;28;20048;-40
2021/01/09 08:17:10;;;;;;;0.00;0.00;;;16.40;61.60;;;;;;4214278;28;20433;-40
2021/01/09 08:19:31;;;;;;;0.00;0.00;;;16.60;61.00;;;;;;4214303;28;20130;-40
2021/01/09 08:21:52;;;;;;;0.00;0.00;;;16.70;60.50;;;;;;4212553;28;20075;-40
2021/01/09 08:24:23;;;;;;;0.15;0.15;;;16.70;60.20;;;;;;4212390;28;20059;-40
2021/01/09 08:26:50;;;;;;;0.00;0.00;;;16.70;60.30;;;;;;4214402;28;20101;-40
2021/01/09 08:29:12;;;;;;;0.15;0.15;;;16.70;60.10;;;;;;4214513;28;20165;-39
2021/01/09 08:31:36;;;;;;;0.20;0.20;;;16.70;60.20;;;;;;4214145;28;20052;-41
2021/01/09 08:33:57;;;;;;;0.00;0.00;;;16.60;60.40;;;;;;4214562;28;20044;-41
2021/01/09 08:36:21;;;;;;;0.00;0.00;;;16.50;60.80;;;;;;4214768;28;20052;-40
2021/01/09 08:38:43;;;;;;;0.00;0.00;;;16.40;61.20;;;;;;4214099;28;20044;-40
2021/01/09 08:41:04;;;;;;;3.42;0.57;;;16.30;61.60;;;;;;4213752;28;20056;-42
2021/01/09 08:43:26;;;;;;;0.17;0.17;;;16.40;61.70;;;;;;4214206;28;20514;-46
2021/01/09 08:45:49;;;;;;;;;;;16.40;61.60;;;;;;4215006;28;20078;-42
2021/01/09 08:48:11;;;;;;;0.00;0.00;;;16.30;61.50;;;;;;4214263;28;19928;-40
2021/01/09 08:50:35;;;;;;;0.00;0.00;;;16.30;61.50;;;;;;4214468;28;20058;-40
2021/01/09 08:52:59;;;;;;;0.00;0.00;;;16.20;62.00;;;;;;4214479;28;20056;-39
2021/01/09 08:55:22;;;;;;;4.65;1.55;;;16.10;62.50;;;;;;4214112;28;20048;-40
2021/01/09 08:57:43;;;;;;;0.00;0.00;;;16.00;63.00;;;;;;4213840;28;20494;-40
2021/01/09 09:00:05;;;;;;;0.00;0.00;;;15.90;63.40;;;;;;4213303;28;20135;-40
2021/01/09 09:02:30;;;;;;;0.00;0.00;;;15.80;63.80;;;;;;4213417;28;20154;-40
2021/01/09 09:04:53;;;;;;;0.40;0.40;;;15.70;64.20;;;;;;4196932;28;20080;-39
2021/01/09 09:07:20;;;;;;;0.00;0.00;;;15.60;64.60;;;;;;4197465;28;20059;-40
2021/01/09 09:09:42;;;;;;;0.08;0.08;;;15.50;65.00;;;;;;4197355;28;20064;-40
2021/01/09 09:12:04;;;;;;;0.00;0.00;;;15.40;66.20;;;;;;4196837;28;20522;-40
2021/01/09 09:14:26;;;;;;;0.08;0.08;;;15.30;65.70;;;;;;4196797;28;20053;-39
2021/01/09 09:16:56;;;;;;;0.00;0.00;;;15.20;66.00;;;;;;4201728;28;20048;-39
2021/01/09 09:19:19;;;;;;;0.00;0.00;;;15.10;66.30;;;;;;4205457;28;20048;-39
2021/01/09 09:21:42;;;;;;;0.10;0.10;;;15.10;66.60;;;;;;4213271;28;20051;-39
2021/01/09 09:24:03;;;;;;;0.00;0.00;;;15.00;66.90;;;;;;4213348;28;20502;-39
2021/01/09 09:26:31;;;;;;;0.00;0.00;;;14.90;67.20;;;;;;4196691;28;20059;-40
2021/01/09 09:28:54;;;;;;;0.15;0.15;;;14.90;67.60;;;;;;4197069;28;20067;-38
2021/01/09 09:31:26;;;;;;;0.00;0.00;;;14.80;67.80;;;;;;4212969;28;20101;-39
2021/01/09 09:33:58;;;;;;;0.00;0.00;;;14.70;68.10;;;;;;4212972;28;20087;-39
2021/01/09 09:36:19;;;;;;;;;;;14.70;68.40;;;;;;4213626;28;20135;-39
2021/01/09 09:38:41;;;;;;;0.00;0.00;;;14.90;68.20;;;;;;4196348;28;20389;-40
2021/01/09 09:41:05;;;;;;;0.00;0.00;;;15.00;67.80;;;;;;4203754;28;20075;-39
2021/01/09 09:43:26;;;;;;;0.00;0.00;;;15.00;67.50;;;;;;4212919;28;20048;-39
2021/01/09 09:45:57;;;;;;;0.45;0.45;;;15.10;67.20;;;;;;4212820;28;20044;-39
2021/01/09 09:48:18;;;;;;;0.10;0.10;;;15.30;66.50;;;;;;4196218;28;20103;-39
2021/01/09 09:50:39;;;;;;;0.00;0.00;;;15.40;66.00;;;;;;4196260;28;20101;-39
2021/01/09 09:53:01;;;;;;;0.00;0.00;;;15.50;65.70;;;;;;4196250;28;20061;-39
2021/01/09 09:55:24;;;;;;;0.10;0.10;;;15.50;65.50;;;;;;4196232;28;20135;-39
2021/01/09 09:57:44;;;;;;;0.00;0.00;;;15.50;65.40;;;;;;4196630;28;20056;-40
2021/01/09 10:00:11;;;;;;;0.00;0.00;;;15.60;65.20;;;;;;4208356;28;20533;-39
2021/01/09 10:02:35;;;;;;;0.00;0.00;;;15.70;64.70;;;;;;4212207;28;20062;-39
2021/01/09 10:04:57;;;;;;;0.00;0.00;;;15.70;64.60;;;;;;4212537;28;20079;-39
2021/01/09 10:07:21;;;;;;;0.00;0.00;;;15.70;64.60;;;;;;4212322;28;20098;-39
2021/01/09 10:09:43;;;;;;;0.82;0.80;;;15.70;64.60;;;;;;4213071;28;20106;-39
2021/01/09 10:12:09;;;;;;;1.35;0.38;;;15.70;64.90;;;;;;4213222;28;20052;-40
2021/01/09 10:14:30;;;;;;;0.00;0.00;;;15.50;65.10;;;;;;4204669;28;20058;-39
2021/01/09 10:16:57;;;;;;;0.03;0.03;;;15.50;65.50;;;;;;4212538;28;20048;-39
2021/01/09 10:19:19;;;;;;;0.00;0.00;;;15.40;65.70;;;;;;4212442;28;20134;-39
2021/01/09 10:21:40;;;;;;;0.00;0.00;;;15.30;65.90;;;;;;4213081;28;20137;-40
2021/01/09 10:24:01;;;;;;;0.30;0.30;;;15.30;66.30;;;;;;4212949;28;20062;-39
2021/01/09 10:26:30;;;;;;;0.00;0.00;;;15.20;66.60;;;;;;4212511;28;20086;-39
2021/01/09 10:28:51;;;;;;;0.00;0.00;;;15.10;66.90;;;;;;4212188;28;20142;-39
2021/01/09 10:31:12;;;;;;;3.92;1.58;;;15.00;67.20;;;;;;4212354;28;20059;-39
2021/01/09 10:33:33;;;;;;;0.00;0.00;;;15.00;67.70;;;;;;4212474;28;20060;-39
2021/01/09 10:35:54;;;;;;;0.00;0.00;;;14.90;67.80;;;;;;4212435;28;20128;-39
2021/01/09 10:38:16;;;;;;;0.00;0.00;;;14.80;68.10;;;;;;4212241;28;20067;-39
2021/01/09 10:40:37;;;;;;;0.00;0.00;;;14.80;68.40;;;;;;4195577;28;20062;-39
2021/01/09 10:42:59;;;;;;;0.05;0.05;;;14.70;68.60;;;;;;4207702;28;20056;-39
2021/01/09 10:45:21;;;;;;;0.28;0.28;;;14.70;68.90;;;;;;4211679;28;20048;-39
2021/01/09 10:47:43;;;;;;;0.10;0.10;;;14.60;69.00;;;;;;4211729;28;20452;-39
2021/01/09 10:50:13;;;;;;;;;;;14.60;69.20;;;;;;4211512;28;20044;-40
2021/01/09 10:52:35;;;;;;;0.00;0.00;;;14.50;69.40;;;;;;4212250;28;19920;-40
2021/01/09 10:54:56;;;;;;;0.00;0.00;;;14.50;70.50;;;;;;4212426;28;20123;-39
2021/01/09 10:57:17;;;;;;;;;;;14.40;69.80;;;;;;4213356;28;20060;-40
2021/01/09 10:59:41;;;;;;;0.03;0.03;;;14.40;70.00;;;;;;4212437;28;19920;-40
2021/01/09 11:02:03;;;;;;;0.00;0.00;;;14.30;70.00;;;;;;4210737;28;20749;-39
2021/01/09 11:04:24;;;;;;;0.10;0.10;;;14.30;70.20;;;;;;4212132;28;20081;-40
2021/01/09 11:06:46;;;;;;;0.00;0.00;;;14.30;70.40;;;;;;4212195;28;20129;-39
2021/01/09 11:09:07;;;;;;;0.20;0.20;;;14.30;70.60;;;;;;4213036;28;20440;-39
2021/01/09 11:11:27;;;;;;;0.00;0.00;;;14.20;70.70;;;;;;4212611;28;20135;-39
2021/01/09 11:13:48;;;;;;;0.20;0.20;;;14.20;70.90;;;;;;4195770;28;20053;-40
2021/01/09 11:16:10;;;;;;;0.00;0.00;;;14.20;71.20;;;;;;4199478;28;20052;-39
2021/01/09 11:18:31;;;;;;;0.00;0.00;;;14.50;70.60;;;;;;4211492;28;20406;-39
2021/01/09 11:20:52;;;;;;;0.00;0.00;;;14.90;69.00;;;;;;4212050;28;20488;-39
2021/01/09 11:23:14;;;;;;;0.00;0.00;;;15.30;67.50;;;;;;4212488;28;20130;-39
2021/01/09 11:25:35;;;;;;;0.00;0.00;;;15.50;66.30;;;;;;4212127;28;20052;-39
2021/01/09 11:27:56;;;;;;;1.20;1.10;;;15.60;65.60;;;;;;4212271;28;20126;-40
2021/01/09 11:30:18;;;;;;;0.00;0.00;;;15.80;65.20;;;;;;4211781;28;20079;-39
2021/01/09 11:32:39;;;;;;;;;;;15.70;64.90;;;;;;4200327;28;20044;-39
2021/01/09 11:35:02;;;;;;;0.00;0.00;;;15.70;64.90;;;;;;4211879;28;19928;-39
2021/01/09 11:37:23;;;;;;;0.03;0.03;;;15.70;65.20;;;;;;4211690;28;20490;-39
2021/01/09 11:39:44;;;;;;;0.00;0.00;;;15.60;65.60;;;;;;4211881;28;20134;-39
2021/01/09 11:42:06;;;;;;;0.43;0.43;;;15.50;65.90;;;;;;4211398;28;20494;-39
2021/01/09 11:44:27;;;;;;;0.00;0.00;;;15.50;66.20;;;;;;4211584;28;20564;-39
2021/01/09 11:46:48;;;;;;;0.00;0.00;;;15.40;66.60;;;;;;4211559;28;20071;-40
2021/01/09 11:49:11;;;;;;;0.28;0.28;;;15.30;66.90;;;;;;4211653;28;20063;-39
2021/01/09 11:51:32;;;;;;;1.00;0.75;;;15.20;67.20;;;;;;4211764;28;20075;-39
2021/01/09 11:53:53;;;;;;;0.20;0.20;;;15.10;67.50;;;;;;4211598;28;20102;-39
2021/01/09 11:56:19;;;;;;;5.40;2.08;;;15.10;67.80;;;;;;4212532;28;20052;-39
2021/01/09 11:58:42;;;;;;;0.00;0.00;;;15.10;68.10;;;;;;4214300;28;20044;-39
2021/01/09 12:01:02;;;;;;;0.00;0.00;;;15.00;68.40;;;;;;4206471;28;20434;-39
2021/01/09 12:03:23;;;;;;;0.00;0.00;;;14.90;68.60;;;;;;4214660;28;20062;-40
2021/01/09 12:05:46;;;;;;;0.00;0.00;;;14.90;68.80;;;;;;4214633;28;20061;-39
2021/01/09 12:08:07;;;;;;;0.00;0.00;;;14.80;69.00;;;;;;4214711;28;20044;-40
2021/01/09 12:10:28;;;;;;;0.20;0.20;;;14.80;69.30;;;;;;4214591;28;20059;-40
2021/01/09 12:12:53;;;;;;;0.30;0.30;;;14.70;69.40;;;;;;4214455;28;20422;-40
2021/01/09 12:15:14;;;;;;;0.00;0.00;;;14.70;69.60;;;;;;4197843;28;20415;-40
2021/01/09 12:17:35;;;;;;;0.10;0.10;;;14.70;69.90;;;;;;4198067;28;20052;-40
2021/01/09 12:20:00;;;;;;;0.35;0.35;;;14.60;70.00;;;;;;4197735;28;20060;-39
2021/01/09 12:22:22;;;;;;;0.10;0.10;;;14.60;70.20;;;;;;4197530;28;20114;-39
2021/01/09 12:24:43;;;;;;;0.00;0.00;;;14.50;70.40;;;;;;4197557;28;20076;-39
2021/01/09 12:27:05;;;;;;;0.10;0.10;;;14.50;70.50;;;;;;4209714;28;20117;-39